Terminal Aerodrome Forecast
Issued by NWS

Home | Current Version | Previous Version | Text Only | Print | Product List | Glossary On
Versions: 1 2 3 4 5 6 7 8 9 10 11 12 13 14 15 16
442
FTUS43 KBIS 240535
TAFDIK
TAF
KDIK 240535Z 2406/2506 VRB03KT P6SM BKN110
     FM240900 VRB03KT 3SM BR BKN040
     FM241100 VRB02KT 1SM BR OVC008
     FM241300 VRB03KT P6SM VCSH OVC015
     FM241700 05006KT P6SM VCSH OVC060=

USA.gov is the U.S. government's official web portal to all federal, state and local government web resources and services.